Time;durP1;ratioP1;P1;durP2;ratioP2;P2;SDS_P1;SDS_P2;PMS_P1;PMS_P2;Temp;Humidity;BMP_temperature;BMP_pressure;BME280_temperature;BME280_humidity;BME280_pressure;Samples;Min_cycle;Max_cycle;Signal;HPM_P1;HPM_P2
2022/08/31 00:05:47;;;;;;;8.07;1.90;;;;;;;22.76;69.09;100422.84;5098960;28;20169;-66
2022/08/31 00:08:26;;;;;;;3.40;1.30;;;;;;;22.82;68.56;100422.47;5120784;28;20366;-66
2022/08/31 00:11:26;;;;;;;5.27;1.50;;;;;;;22.92;69.15;100427.19;5120163;28;20115;-69
2022/08/31 00:14:16;;;;;;;5.30;1.40;;;;;;;23.04;68.58;100418.44;5121606;28;20055;-66
2022/08/31 00:17:01;;;;;;;11.13;1.70;;;;;;;22.96;66.90;100380.72;5091286;28;20123;-66
2022/08/31 00:23:11;;;;;;;9.03;1.33;;;;;;;23.18;66.79;100418.34;5121217;28;20047;-63
2022/08/31 00:26:18;;;;;;;5.60;1.20;;;;;;;23.09;67.23;100402.13;5105189;28;20362;-66
2022/08/31 00:28:59;;;;;;;7.07;1.50;;;;;;;23.30;66.10;100429.16;5120395;28;20078;-67
2022/08/31 00:31:51;;;;;;;24.33;2.67;;;;;;;23.30;66.35;100418.50;5120559;28;20075;-66
2022/08/31 00:34:28;;;;;;;14.87;1.73;;;;;;;23.41;66.72;100399.97;5077693;28;20063;-65
2022/08/31 00:37:08;;;;;;;3.20;1.27;;;;;;;23.58;65.17;100407.66;5121139;28;20051;-63
2022/08/31 00:39:54;;;;;;;5.80;1.60;;;;;;;23.53;64.79;100391.13;5121151;28;20058;-64
2022/08/31 00:42:26;;;;;;;5.43;1.53;;;;;;;23.66;65.16;100407.13;5124102;28;20043;-66
2022/08/31 00:45:15;;;;;;;27.07;3.00;;;;;;;23.79;65.50;100401.84;5125453;28;20049;-65
2022/08/31 00:47:56;;;;;;;4.10;1.63;;;;;;;23.78;65.24;100392.97;5124203;28;20115;-64
2022/08/31 00:50:35;;;;;;;9.30;1.63;;;;;;;23.65;64.88;100398.28;5125426;28;20070;-65
2022/08/31 00:53:22;;;;;;;8.87;1.87;;;;;;;23.54;65.45;100376.84;5125019;28;20152;-66
2022/08/31 00:59:11;;;;;;;7.43;1.70;;;;;;;23.62;63.68;100379.84;5090545;28;20123;-63
2022/08/31 01:01:59;;;;;;;8.97;1.50;;;;;;;23.50;64.18;100370.00;5091471;28;20046;-63
2022/08/31 01:04:56;;;;;;;5.57;1.43;;;;;;;23.19;62.59;100340.13;5091812;28;20040;-63
2022/08/31 01:07:36;;;;;;;42.27;4.17;;;;;;;23.34;63.79;100369.34;5091283;28;20048;-63
2022/08/31 01:10:21;;;;;;;8.13;1.37;;;;;;;23.48;61.84;100361.25;5091567;28;20487;-63
2022/08/31 01:13:13;;;;;;;7.83;1.60;;;;;;;23.57;63.17;100347.28;5089789;28;20071;-62
2022/08/31 01:15:57;;;;;;;6.17;1.50;;;;;;;23.72;62.91;100374.72;5088651;28;20069;-64
2022/08/31 01:18:45;;;;;;;20.07;1.90;;;;;;;23.61;61.16;100372.81;5091287;28;20206;-62
2022/08/31 01:21:59;;;;;;;29.45;2.13;;;;;;;23.52;61.83;100368.09;5090430;28;20055;-63
2022/08/31 01:25:06;;;;;;;3.43;1.23;;;;;;;23.42;62.73;100335.03;5063333;28;20059;-63
2022/08/31 01:27:52;;;;;;;8.77;1.63;;;;;;;23.78;62.37;100384.13;5091475;28;20048;-63
2022/08/31 01:30:35;;;;;;;7.40;1.73;;;;;;;23.84;61.71;100389.06;5091040;28;20060;-64
2022/08/31 01:33:16;;;;;;;15.32;1.67;;;;;;;23.72;60.14;100395.22;5093066;28;20062;-64
2022/08/31 01:35:58;;;;;;;10.97;1.40;;;;;;;23.66;61.08;100397.34;5091783;28;20074;-63
2022/08/31 01:38:39;;;;;;;6.80;1.40;;;;;;;23.78;61.53;100397.47;5092443;28;20518;-62
2022/08/31 01:44:43;;;;;;;9.67;1.33;;;;;;;23.78;59.96;100362.78;5091495;28;20052;-63
2022/08/31 01:47:28;;;;;;;8.03;1.10;;;;;;;23.77;60.08;100361.09;5038451;28;20334;-63
2022/08/31 01:54:26;;;;;;;12.23;1.50;;;;;;;24.13;59.49;100338.09;5015937;28;20045;-64
2022/08/31 01:57:25;;;;;;;9.20;1.10;;;;;;;24.13;58.05;100348.75;5019785;28;20042;-65
2022/08/31 02:00:15;;;;;;;6.32;1.15;;;;;;;23.71;57.89;100302.78;4996042;28;20092;-65
2022/08/31 02:03:26;;;;;;;52.23;5.03;;;;;;;23.68;57.79;100307.38;5019907;28;20347;-65
2022/08/31 02:06:17;;;;;;;4.37;1.53;;;;;;;23.78;58.71;100325.44;5019524;28;20167;-62
2022/08/31 02:09:01;;;;;;;10.03;1.53;;;;;;;23.81;59.04;100319.88;5019480;28;20098;-65
2022/08/31 02:11:56;;;;;;;13.17;1.57;;;;;;;23.87;59.65;100298.13;5020859;28;20049;-65
2022/08/31 02:14:53;;;;;;;3.23;1.07;;;;;;;24.15;59.78;100304.13;5020638;28;20088;-68
2022/08/31 02:17:32;;;;;;;8.07;1.47;;;;;;;24.38;59.94;100332.66;5020993;28;20726;-65
2022/08/31 02:20:15;;;;;;;;;;;;;;;24.45;60.18;100327.75;5021407;28;20785;-64
2022/08/31 02:23:10;;;;;;;12.70;2.20;;;;;;;24.40;59.04;100325.41;5020687;28;19924;-64
2022/08/31 02:26:03;;;;;;;4.70;1.33;;;;;;;24.30;58.75;100321.69;5031252;28;20064;-66
2022/08/31 02:28:46;;;;;;;80.53;6.27;;;;;;;24.22;59.77;100300.06;5019928;28;20057;-64
2022/08/31 02:31:36;;;;;;;150.27;8.70;;;;;;;24.45;59.27;100315.25;5096327;28;20054;-64
2022/08/31 02:34:19;;;;;;;3.03;0.90;;;;;;;24.24;59.88;100252.75;5122689;28;20058;-65
2022/08/31 02:36:57;;;;;;;9.30;1.50;;;;;;;24.47;59.27;100291.97;5123298;28;20052;-66
2022/08/31 02:39:39;;;;;;;6.57;1.40;;;;;;;24.42;59.04;100283.41;5123409;28;20122;-61
2022/08/31 02:42:29;;;;;;;7.13;1.70;;;;;;;24.47;59.11;100305.31;5123090;28;20048;-62
2022/08/31 02:45:36;;;;;;;3.97;1.17;;;;;;;24.36;58.22;100297.22;5122567;28;20063;-62
2022/08/31 02:48:43;;;;;;;52.67;4.23;;;;;;;24.58;57.84;100325.03;5123099;28;20051;-61
2022/08/31 02:52:00;;;;;;;69.00;5.27;;;;;;;24.13;58.64;100252.66;5123465;28;20054;-61
2022/08/31 02:55:15;;;;;;;7.70;1.90;;;;;;;24.52;57.67;100311.19;5122873;28;20618;-61
2022/08/31 02:58:18;;;;;;;7.30;1.50;;;;;;;24.33;57.99;100278.75;5060430;28;20112;-60
2022/08/31 03:01:28;;;;;;;6.43;1.20;;;;;;;24.51;58.02;100306.81;5010297;28;20050;-61
2022/08/31 03:04:08;;;;;;;3.17;1.10;;;;;;;24.52;57.44;100310.34;4978065;28;20054;-60
2022/08/31 03:06:54;;;;;;;11.17;1.60;;;;;;;24.44;57.00;100307.34;5009353;28;20054;-61
2022/08/31 03:10:10;;;;;;;10.37;1.80;;;;;;;24.32;57.65;100304.59;5010015;28;20069;-61
2022/08/31 03:13:00;;;;;;;23.07;2.47;;;;;;;24.34;58.92;100307.19;4965742;28;20618;-60
2022/08/31 03:16:12;;;;;;;5.97;1.25;;;;;;;24.32;58.57;100303.75;5010807;28;20053;-61
2022/08/31 03:19:35;;;;;;;4.00;1.13;;;;;;;24.43;58.95;100301.13;5006612;28;20059;-61
2022/08/31 03:22:49;;;;;;;5.90;1.20;;;;;;;24.47;58.15;100278.63;4953247;29;20052;-63
2022/08/31 03:25:50;;;;;;;15.07;1.65;;;;;;;24.44;58.39;100260.13;4950172;29;20097;-61
2022/08/31 03:28:47;;;;;;;3.60;1.20;;;;;;;24.45;55.70;100274.31;4953046;29;20074;-62
2022/08/31 03:31:42;;;;;;;11.60;2.07;;;;;;;24.39;55.76;100278.31;4951065;29;20055;-60
2022/08/31 03:35:16;;;;;;;37.33;4.70;;;;;;;24.33;56.83;100284.09;4997384;28;20366;-65
2022/08/31 03:38:14;;;;;;;10.03;1.80;;;;;;;24.19;57.04;100276.22;5021359;28;20120;-64
2022/08/31 03:40:53;;;;;;;7.17;1.40;;;;;;;24.17;58.03;100240.81;5048210;28;20185;-64
2022/08/31 03:43:37;;;;;;;8.63;1.27;;;;;;;24.20;58.08;100238.75;5047269;28;20218;-65
2022/08/31 03:46:23;;;;;;;11.40;1.10;;;;;;;24.14;57.73;100241.00;5047333;28;20500;-65
2022/08/31 03:49:11;;;;;;;5.87;1.50;;;;;;;24.01;58.04;100249.94;5016411;28;20084;-65
2022/08/31 03:51:49;;;;;;;15.33;1.60;;;;;;;24.04;57.39;100263.06;5046781;28;20532;-65
2022/08/31 03:54:35;;;;;;;14.70;1.90;;;;;;;24.02;58.46;100248.97;5032482;28;20129;-66
2022/08/31 03:57:16;;;;;;;9.67;1.90;;;;;;;23.80;58.59;100222.97;5048627;28;20041;-65
2022/08/31 04:00:24;;;;;;;175.33;10.90;;;;;;;23.97;59.37;100245.78;5015271;28;20135;-64
2022/08/31 04:03:07;;;;;;;7.17;1.00;;;;;;;23.85;60.07;100241.31;4947743;28;20072;-65
2022/08/31 04:08:54;;;;;;;9.10;2.60;;;;;;;23.80;60.41;100254.16;5048297;28;20222;-63
2022/08/31 04:14:21;;;;;;;8.25;2.03;;;;;;;23.71;61.36;100260.94;4998303;28;20053;-64
2022/08/31 04:17:10;;;;;;;14.63;1.63;;;;;;;23.50;61.16;100231.31;5006956;28;20266;-63
2022/08/31 04:20:07;;;;;;;6.43;1.60;;;;;;;23.55;61.56;100271.84;5047488;28;20057;-66
2022/08/31 04:22:52;;;;;;;8.87;1.60;;;;;;;23.57;62.46;100261.94;5048676;28;20665;-64
2022/08/31 04:25:28;;;;;;;6.93;1.43;;;;;;;23.54;62.76;100248.84;5047469;28;20045;-64
2022/08/31 04:28:30;;;;;;;8.27;1.93;;;;;;;23.50;62.54;100242.00;5046095;28;20040;-67
2022/08/31 04:31:13;;;;;;;9.25;1.70;;;;;;;23.07;63.27;100202.34;5026438;28;20097;-65
2022/08/31 04:34:05;;;;;;;8.47;1.57;;;;;;;23.38;63.91;100221.53;5047744;28;20068;-67
2022/08/31 04:37:29;;;;;;;5.50;1.80;;;;;;;23.44;63.39;100200.63;5028132;28;20149;-66
2022/08/31 04:40:05;;;;;;;10.07;1.60;;;;;;;23.46;63.50;100216.50;5120830;28;20035;-67
2022/08/31 04:42:43;;;;;;;7.93;1.43;;;;;;;23.66;63.74;100231.97;5121413;28;20051;-66
2022/08/31 04:45:33;;;;;;;17.67;3.30;;;;;;;23.68;62.79;100240.69;5077988;28;20096;-67
2022/08/31 04:48:11;;;;;;;12.37;1.80;;;;;;;23.58;61.92;100250.28;5121324;28;20066;-66
2022/08/31 04:50:54;;;;;;;6.70;1.60;;;;;;;23.53;62.24;100249.78;5121148;28;20293;-65
2022/08/31 04:53:37;;;;;;;11.73;1.50;;;;;;;23.44;63.32;100247.78;5120794;28;20036;-65
2022/08/31 04:56:27;;;;;;;10.60;1.50;;;;;;;23.29;63.01;100254.16;5090130;28;20314;-67
2022/08/31 04:59:26;;;;;;;13.87;2.10;;;;;;;22.82;63.21;100213.81;5121220;28;20122;-64
2022/08/31 05:02:29;;;;;;;32.77;2.47;;;;;;;23.14;63.33;100235.63;5120839;28;20040;-64
2022/08/31 05:05:23;;;;;;;17.50;2.17;;;;;;;23.02;63.40;100209.81;5116773;28;20055;-65
2022/08/31 05:08:04;;;;;;;13.67;2.47;;;;;;;22.89;62.59;100227.56;5108134;28;20056;-65
2022/08/31 05:10:44;;;;;;;14.73;2.77;;;;;;;22.88;62.95;100216.06;5121401;28;20122;-63
2022/08/31 05:16:43;;;;;;;10.47;2.40;;;;;;;22.90;63.14;100205.31;5120891;28;20079;-65
2022/08/31 05:19:59;;;;;;;9.10;1.87;;;;;;;22.87;63.27;100218.84;5121454;28;20039;-65
2022/08/31 05:22:46;;;;;;;7.83;1.60;;;;;;;22.83;63.29;100227.00;5121543;28;20073;-65
2022/08/31 05:25:19;;;;;;;14.67;2.20;;;;;;;22.82;62.77;100238.66;5120167;28;20061;-64
2022/08/31 05:27:58;;;;;;;14.80;2.40;;;;;;;22.54;62.72;100188.19;5100943;28;20051;-65
2022/08/31 05:30:49;;;;;;;22.25;8.10;;;;;;;22.88;63.50;100233.84;5124141;28;20127;-66
2022/08/31 05:33:26;;;;;;;54.43;4.43;;;;;;;22.85;62.66;100226.09;5083071;28;20063;-66
2022/08/31 05:36:22;;;;;;;56.13;4.20;;;;;;;22.82;62.28;100208.50;5124858;28;20051;-65
2022/08/31 05:39:02;;;;;;;10.00;1.57;;;;;;;22.79;61.49;100206.91;5124612;28;20043;-66
2022/08/31 05:41:55;;;;;;;10.37;1.63;;;;;;;22.80;60.88;100211.25;5124294;28;20091;-65
2022/08/31 05:44:41;;;;;;;7.97;1.70;;;;;;;22.36;61.52;100175.16;5124068;28;20099;-66
2022/08/31 05:47:20;;;;;;;34.13;2.40;;;;;;;22.51;61.59;100199.06;5086973;28;20067;-65
2022/08/31 05:50:22;;;;;;;14.30;1.70;;;;;;;22.31;61.14;100177.28;5095427;28;20050;-65
2022/08/31 05:53:09;;;;;;;13.07;1.93;;;;;;;22.13;60.78;100178.47;5124390;28;20051;-64
2022/08/31 05:56:14;;;;;;;17.87;2.07;;;;;;;22.30;61.23;100210.19;5124508;28;20051;-66
2022/08/31 06:01:48;;;;;;;15.57;2.13;;;;;;;22.18;62.59;100187.00;5122564;28;20052;-66
2022/08/31 06:07:14;;;;;;;24.97;8.90;;;;;;;22.06;62.86;100199.28;5124305;28;20052;-65
2022/08/31 06:10:04;;;;;;;36.23;15.77;;;;;;;21.98;64.27;100186.50;5085848;28;20059;-65
2022/08/31 06:12:43;;;;;;;31.27;13.13;;;;;;;21.93;64.03;100182.44;5124086;28;20052;-66
2022/08/31 06:15:25;;;;;;;20.70;9.80;;;;;;;21.93;64.76;100191.25;5120810;28;20304;-65
2022/08/31 06:18:19;;;;;;;24.50;7.37;;;;;;;21.88;64.99;100211.97;5124012;28;20298;-65
2022/08/31 06:21:14;;;;;;;19.00;3.30;;;;;;;21.83;66.03;100208.78;5123436;28;20111;-65
2022/08/31 06:24:17;;;;;;;16.23;2.80;;;;;;;21.82;65.91;100209.72;5079491;28;20060;-65
2022/08/31 06:27:06;;;;;;;20.50;2.40;;;;;;;21.73;66.25;100197.84;5122993;28;20115;-65
2022/08/31 06:29:46;;;;;;;25.70;3.83;;;;;;;21.68;66.60;100183.16;5123386;28;20043;-66
2022/08/31 06:32:42;;;;;;;129.83;8.20;;;;;;;21.63;66.78;100201.22;5089257;28;20036;-67
2022/08/31 06:35:36;;;;;;;10.23;1.40;;;;;;;21.58;67.03;100190.88;5097585;28;20050;-67
2022/08/31 06:38:16;;;;;;;5.97;1.67;;;;;;;21.62;66.82;100188.88;5123403;28;20308;-67
2022/08/31 06:43:56;;;;;;;22.10;6.67;;;;;;;21.39;67.59;100193.84;5089077;28;20044;-66
2022/08/31 06:46:42;;;;;;;;;;;;;;;21.44;67.96;100194.41;5075856;28;20278;-67
2022/08/31 06:49:29;;;;;;;19.77;2.63;;;;;;;21.37;67.97;100209.00;5089579;28;19993;-67
2022/08/31 06:52:08;;;;;;;14.07;3.50;;;;;;;21.29;68.69;100219.22;5089071;28;20284;-67
2022/08/31 06:54:59;;;;;;;41.00;4.00;;;;;;;21.22;68.88;100217.91;5089571;28;20301;-66
2022/08/31 06:57:46;;;;;;;20.13;1.53;;;;;;;21.12;69.15;100191.06;5089908;28;20360;-66
2022/08/31 07:00:44;;;;;;;30.40;2.90;;;;;;;20.86;69.79;100152.78;5088193;28;20432;-65
2022/08/31 07:03:36;;;;;;;25.23;2.77;;;;;;;20.94;70.18;100182.38;5034882;28;20270;-64
2022/08/31 07:06:16;;;;;;;60.97;5.10;;;;;;;20.92;69.84;100179.00;5091362;28;20378;-64
2022/08/31 07:08:57;;;;;;;11.37;2.00;;;;;;;20.90;69.96;100186.19;5089461;28;20366;-64
2022/08/31 07:11:35;;;;;;;;;;;;;;;20.86;70.51;100195.28;5089634;28;20967;-64
2022/08/31 07:14:25;;;;;;;25.13;2.17;;;;;;;20.79;71.03;100193.94;5097548;28;19931;-64
2022/08/31 07:17:11;;;;;;;29.37;2.73;;;;;;;20.67;70.96;100183.13;5121827;28;20315;-64
2022/08/31 07:23:02;;;;;;;11.80;2.00;;;;;;;20.53;71.59;100172.41;5093691;28;20297;-64
2022/08/31 07:25:53;;;;;;;12.83;1.73;;;;;;;20.55;72.12;100181.19;5104909;28;20503;-64
2022/08/31 07:28:53;;;;;;;25.53;2.53;;;;;;;20.53;71.97;100184.84;5100580;28;20308;-65
2022/08/31 07:31:43;;;;;;;47.77;3.70;;;;;;;20.24;72.00;100156.44;5095419;28;20344;-64
2022/08/31 07:34:32;;;;;;;34.30;3.33;;;;;;;20.31;73.13;100167.50;5122235;28;20282;-65
2022/08/31 07:44:03;;;;;;;9.87;2.37;;;;;;;20.31;72.72;100206.47;5122070;28;20290;-64
2022/08/31 07:46:48;;;;;;;31.97;2.97;;;;;;;20.22;72.50;100205.22;5121903;28;20293;-65
2022/08/31 07:49:43;;;;;;;19.53;2.67;;;;;;;20.16;73.22;100206.41;5121581;28;20265;-65
2022/08/31 07:52:29;;;;;;;13.83;3.13;;;;;;;19.71;73.25;100131.16;5121007;28;20296;-63
2022/08/31 07:55:14;;;;;;;42.20;4.33;;;;;;;20.03;73.74;100189.47;5121060;28;20301;-63
2022/08/31 07:58:04;;;;;;;19.93;3.03;;;;;;;19.94;73.92;100187.34;5120249;28;20608;-64
2022/08/31 08:00:48;;;;;;;23.00;2.43;;;;;;;19.88;73.90;100195.66;5121861;28;20369;-63
2022/08/31 08:03:28;;;;;;;42.50;3.00;;;;;;;19.74;74.11;100197.25;5121043;28;20562;-63
2022/08/31 08:06:17;;;;;;;15.77;1.70;;;;;;;19.73;74.50;100192.91;5121607;28;20284;-63
2022/08/31 08:09:06;;;;;;;5.80;1.73;;;;;;;19.68;74.76;100168.44;5110544;28;20285;-64
2022/08/31 08:12:05;;;;;;;14.60;2.00;;;;;;;19.66;75.63;100165.00;5120406;28;20274;-63
2022/08/31 08:14:45;;;;;;;13.37;1.93;;;;;;;19.63;75.68;100167.81;5112294;28;20305;-63
2022/08/31 08:17:26;;;;;;;12.47;1.70;;;;;;;19.63;76.26;100181.06;5121288;28;20290;-64
2022/08/31 08:20:19;;;;;;;13.73;2.13;;;;;;;19.55;77.11;100188.59;5119765;28;20289;-63
2022/08/31 08:23:32;;;;;;;9.50;2.10;;;;;;;19.47;77.55;100196.09;5121373;28;20462;-64
2022/08/31 08:26:27;;;;;;;13.87;1.73;;;;;;;19.35;78.09;100182.59;5073678;28;20278;-64
2022/08/31 08:29:07;;;;;;;23.23;2.20;;;;;;;19.10;78.43;100135.38;5121209;28;20288;-64
2022/08/31 08:32:10;;;;;;;29.20;2.95;;;;;;;19.30;79.02;100174.03;5121091;28;20572;-64
2022/08/31 08:35:01;;;;;;;20.52;2.38;;;;;;;19.21;79.65;100169.22;5120464;28;20054;-63
2022/08/31 08:37:39;;;;;;;13.63;2.30;;;;;;;19.12;80.21;100175.88;5121511;28;20048;-63
2022/08/31 08:40:44;;;;;;;28.43;2.63;;;;;;;19.08;80.72;100173.47;5120776;28;20690;-62
2022/08/31 08:43:24;;;;;;;16.03;2.17;;;;;;;18.93;81.46;100154.81;5111485;28;20381;-63
2022/08/31 08:46:08;;;;;;;12.67;2.17;;;;;;;19.03;81.98;100186.09;5094512;28;20781;-65
2022/08/31 08:49:22;;;;;;;21.17;2.53;;;;;;;18.71;82.56;100143.59;5120975;28;20311;-63
2022/08/31 08:52:04;;;;;;;62.97;5.17;;;;;;;18.86;83.49;100171.94;5121032;28;20285;-63
2022/08/31 08:54:51;;;;;;;46.10;6.13;;;;;;;18.89;84.01;100190.31;5121323;28;20282;-64
2022/08/31 08:57:37;;;;;;;11.67;4.13;;;;;;;18.85;84.53;100185.28;5120029;28;20566;-63
2022/08/31 09:00:21;;;;;;;17.67;2.90;;;;;;;18.63;84.69;100151.09;5119639;28;20354;-63
2022/08/31 09:03:12;;;;;;;70.87;5.07;;;;;;;18.81;85.28;100184.56;5097441;28;20289;-64
2022/08/31 09:06:05;;;;;;;11.47;2.47;;;;;;;18.81;85.63;100184.56;5124535;28;20281;-63
2022/08/31 09:08:57;;;;;;;;;;;;;;;18.80;86.24;100190.81;5124116;28;20298;-63
2022/08/31 09:11:55;;;;;;;43.60;4.40;;;;;;;18.74;86.70;100177.84;5125059;28;19924;-64
2022/08/31 09:15:14;;;;;;;21.27;3.30;;;;;;;18.75;87.34;100176.91;5124478;28;20281;-64
2022/08/31 09:18:01;;;;;;;29.40;3.60;;;;;;;18.73;87.51;100194.66;5123514;28;20327;-63
2022/08/31 09:21:19;;;;;;;22.77;2.77;;;;;;;18.73;88.09;100189.38;5124695;28;20281;-63
2022/08/31 09:24:09;;;;;;;9.70;2.53;;;;;;;18.72;88.47;100208.81;5123898;28;20285;-63
2022/08/31 09:27:03;;;;;;;32.57;3.80;;;;;;;18.65;88.35;100196.84;5124742;28;20273;-63
2022/08/31 09:33:13;;;;;;;9.13;2.43;;;;;;;18.57;89.38;100209.59;5123997;28;20123;-63
2022/08/31 09:38:58;;;;;;;10.50;2.90;;;;;;;18.58;90.11;100206.03;5122968;28;20316;-64
2022/08/31 09:41:37;;;;;;;11.80;3.10;;;;;;;18.56;90.30;100210.53;5089562;28;20277;-64
2022/08/31 09:44:35;;;;;;;14.65;3.35;;;;;;;18.55;90.59;100212.34;5124588;28;20337;-64
2022/08/31 09:47:42;;;;;;;11.38;2.78;;;;;;;18.57;90.46;100225.47;5124466;28;20310;-64
2022/08/31 09:50:45;;;;;;;22.47;4.00;;;;;;;18.54;90.72;100242.34;5123162;28;20286;-63
2022/08/31 09:56:34;;;;;;;14.23;4.37;;;;;;;18.46;91.67;100218.94;5124093;28;20282;-64
2022/08/31 09:59:42;;;;;;;10.17;4.47;;;;;;;18.06;92.11;100154.78;5122784;28;20308;-64
2022/08/31 10:02:43;;;;;;;19.10;4.33;;;;;;;18.44;92.39;100226.09;5120593;28;20435;-64
2022/08/31 10:05:39;;;;;;;13.63;3.63;;;;;;;18.41;92.73;100220.94;5123312;28;20298;-64
2022/08/31 10:08:26;;;;;;;12.50;4.40;;;;;;;18.37;93.10;100213.22;5122385;28;20277;-64
2022/08/31 10:11:15;;;;;;;8.83;3.73;;;;;;;18.36;93.37;100222.97;5122596;28;20289;-63
2022/08/31 10:14:06;;;;;;;14.27;3.40;;;;;;;18.28;93.44;100218.06;5082358;28;20831;-64
2022/08/31 10:17:02;;;;;;;8.17;4.47;;;;;;;18.39;93.51;100212.22;5124046;28;20297;-64
2022/08/31 10:20:05;;;;;;;11.97;3.70;;;;;;;18.23;93.49;100185.69;5120323;28;20368;-63
2022/08/31 10:23:02;;;;;;;11.03;4.20;;;;;;;18.43;93.58;100219.09;5123966;28;20566;-63
2022/08/31 10:25:51;;;;;;;7.80;3.73;;;;;;;18.45;93.76;100222.53;5123655;28;20289;-63
2022/08/31 10:28:35;;;;;;;11.57;4.07;;;;;;;18.48;93.73;100227.66;5123584;28;20328;-65
2022/08/31 10:31:47;;;;;;;11.17;4.07;;;;;;;18.47;93.85;100231.25;5122722;28;20297;-64
2022/08/31 10:37:48;;;;;;;8.27;3.60;;;;;;;18.52;93.74;100250.41;5122882;28;20057;-63
2022/08/31 10:43:36;;;;;;;16.27;4.17;;;;;;;18.45;94.00;100222.53;5121275;28;20326;-63
2022/08/31 10:46:29;;;;;;;10.57;3.90;;;;;;;18.46;93.91;100245.38;5123269;28;20341;-63
2022/08/31 10:49:19;;;;;;;15.37;4.30;;;;;;;18.44;93.85;100241.97;5122780;28;20293;-63
2022/08/31 10:52:01;;;;;;;12.77;4.10;;;;;;;18.41;93.95;100231.53;5122076;28;20609;-63
2022/08/31 10:55:11;;;;;;;15.27;4.43;;;;;;;18.03;93.99;100173.44;5105224;28;20923;-63
2022/08/31 10:58:05;;;;;;;10.53;3.77;;;;;;;18.40;94.20;100221.91;5081912;28;20289;-63
2022/08/31 11:01:02;;;;;;;3.53;3.10;;;;;;;18.37;94.18;100219.41;5120044;28;20294;-63
2022/08/31 11:04:38;;;;;;;10.10;3.43;;;;;;;18.41;93.60;100225.38;5122513;28;20290;-64
2022/08/31 11:07:56;;;;;;;12.63;5.50;;;;;;;18.40;93.49;100240.41;5088103;28;20290;-63
2022/08/31 11:10:52;;;;;;;8.37;4.17;;;;;;;18.24;93.39;100207.69;5122717;28;20289;-63
2022/08/31 11:16:55;;;;;;;;;;;;;;;18.18;94.06;100223.88;5120537;28;20281;-64
2022/08/31 11:20:04;;;;;;;19.80;5.00;;;;;;;18.11;94.49;100233.88;5121296;28;19935;-63
2022/08/31 11:23:31;;;;;;;6.90;4.17;;;;;;;18.08;94.90;100229.59;5121981;28;20525;-63
2022/08/31 11:26:54;;;;;;;8.07;4.47;;;;;;;18.06;95.13;100215.59;5120307;28;20590;-64
2022/08/31 11:30:07;;;;;;;10.13;4.90;;;;;;;17.96;95.53;100209.03;5121005;28;20381;-63
2022/08/31 11:33:04;;;;;;;14.07;5.23;;;;;;;17.98;95.66;100198.41;5122361;28;20292;-63
2022/08/31 11:36:08;;;;;;;8.75;5.65;;;;;;;17.89;95.85;100182.03;5121686;28;20324;-64
2022/08/31 11:41:45;;;;;;;11.67;5.10;;;;;;;17.63;95.68;100148.91;5121259;28;20375;-64
2022/08/31 11:45:02;;;;;;;10.73;5.10;;;;;;;17.82;95.66;100195.59;5121850;28;20357;-62
2022/08/31 11:47:53;;;;;;;10.13;4.33;;;;;;;17.74;95.82;100192.44;5122386;28;20341;-63
2022/08/31 11:51:14;;;;;;;9.97;3.87;;;;;;;17.72;95.79;100183.72;5097078;28;20303;-63
2022/08/31 11:53:58;;;;;;;10.17;4.33;;;;;;;17.73;95.76;100196.03;5043368;28;20465;-65
2022/08/31 11:56:47;;;;;;;5.93;3.90;;;;;;;17.69;95.87;100185.59;5067164;28;20335;-64
2022/08/31 11:59:44;;;;;;;10.07;4.90;;;;;;;17.75;95.45;100194.19;5065861;28;20295;-64
2022/08/31 12:03:01;;;;;;;9.50;5.13;;;;;;;17.76;95.36;100196.72;5068501;28;20425;-65
2022/08/31 12:08:53;;;;;;;12.40;5.23;;;;;;;17.77;95.66;100202.88;5069611;28;20291;-65
2022/08/31 12:11:46;;;;;;;10.10;5.20;;;;;;;17.79;95.88;100190.44;5049803;28;20589;-65
2022/08/31 12:14:48;;;;;;;12.37;5.67;;;;;;;17.43;95.78;100135.78;5067277;28;20321;-64
2022/08/31 12:17:45;;;;;;;;;;;;;;;17.76;95.82;100201.16;5067394;28;20320;-65
2022/08/31 12:24:17;;;;;;;10.97;5.33;;;;;;;17.68;95.99;100209.47;5067247;28;20345;-64
2022/08/31 12:27:08;;;;;;;9.83;4.27;;;;;;;17.63;95.91;100191.16;5028131;28;20287;-64
2022/08/31 12:33:35;;;;;;;10.02;4.30;;;;;;;17.44;94.98;100155.97;5083683;28;20361;-63
2022/08/31 12:36:33;;;;;;;8.23;4.30;;;;;;;17.48;94.90;100170.75;5066438;28;20056;-63
2022/08/31 12:42:19;;;;;;;10.88;4.68;;;;;;;17.42;94.93;100176.31;5082942;28;20340;-64
2022/08/31 12:45:11;;;;;;;22.17;5.20;;;;;;;17.41;95.14;100174.59;5083134;28;20061;-63
2022/08/31 12:48:11;;;;;;;12.43;4.80;;;;;;;17.10;95.13;100128.47;5083008;28;20271;-63
2022/08/31 12:51:13;;;;;;;12.63;4.50;;;;;;;17.30;95.60;100161.00;5083394;28;20074;-64
2022/08/31 12:54:25;;;;;;;13.50;4.30;;;;;;;17.42;95.77;100181.59;5069011;28;20314;-64
2022/08/31 12:57:29;;;;;;;9.43;4.37;;;;;;;17.41;95.78;100175.44;5053358;28;20309;-63
2022/08/31 13:00:19;;;;;;;17.10;4.97;;;;;;;17.23;95.80;100150.75;5081962;28;20310;-63
2022/08/31 13:03:22;;;;;;;8.77;4.67;;;;;;;17.39;96.07;100193.16;5083180;28;20358;-64
2022/08/31 13:06:08;;;;;;;13.00;4.53;;;;;;;17.37;96.21;100184.47;5067666;28;20359;-64
2022/08/31 13:12:28;;;;;;;8.17;5.20;;;;;;;17.46;97.09;100167.31;5082829;28;20321;-64
2022/08/31 13:15:08;;;;;;;9.80;4.97;;;;;;;17.50;97.33;100168.91;5082753;28;20346;-63
2022/08/31 13:17:46;;;;;;;15.63;6.00;;;;;;;17.59;97.24;100178.16;5083240;28;20283;-64
2022/08/31 13:20:42;;;;;;;9.63;5.50;;;;;;;17.59;97.15;100173.72;5083120;28;20318;-64
2022/08/31 13:23:38;;;;;;;10.10;5.50;;;;;;;17.65;97.15;100173.47;5083381;28;20320;-63
2022/08/31 13:26:24;;;;;;;17.17;6.87;;;;;;;17.68;97.14;100173.31;5066187;28;20287;-63
2022/08/31 13:29:41;;;;;;;13.77;6.67;;;;;;;17.71;97.07;100176.75;5088234;28;20283;-64
2022/08/31 13:32:43;;;;;;;25.17;5.73;;;;;;;17.72;96.78;100173.16;5119205;28;20361;-64
2022/08/31 13:35:35;;;;;;;20.87;5.37;;;;;;;17.73;96.48;100180.19;5073878;28;20372;-64
2022/08/31 13:38:39;;;;;;;11.38;6.40;;;;;;;17.67;96.49;100170.72;5113532;28;20289;-64
2022/08/31 13:41:28;;;;;;;11.40;5.90;;;;;;;17.45;96.39;100144.50;5102845;28;20083;-65
2022/08/31 13:44:21;;;;;;;9.80;5.67;;;;;;;17.57;96.66;100170.34;5102516;28;20306;-66
2022/08/31 13:47:05;;;;;;;9.67;3.73;;;;;;;17.41;96.48;100158.75;5103223;28;20290;-65
2022/08/31 13:49:47;;;;;;;6.07;3.55;;;;;;;17.28;96.05;100157.63;5103279;28;20447;-64
2022/08/31 13:52:33;;;;;;;6.57;2.47;;;;;;;17.15;94.88;100163.44;5106483;28;20066;-65
2022/08/31 13:58:43;;;;;;;7.27;2.33;;;;;;;16.73;93.40;100148.56;5106032;28;20286;-65
2022/08/31 14:01:48;;;;;;;4.70;2.27;;;;;;;16.78;94.10;100169.50;5105608;28;20336;-64
2022/08/31 14:08:00;;;;;;;5.40;2.57;;;;;;;16.77;95.33;100167.72;5097924;28;20348;-62
2022/08/31 14:10:58;;;;;;;8.70;2.63;;;;;;;16.78;95.69;100153.66;5060115;28;20274;-62
2022/08/31 14:13:46;;;;;;;8.47;2.93;;;;;;;16.83;96.19;100156.13;5072772;28;20290;-61
2022/08/31 14:16:31;;;;;;;6.33;3.03;;;;;;;16.84;96.34;100144.63;5104539;28;20931;-62
2022/08/31 14:19:13;;;;;;;6.70;3.13;;;;;;;16.80;96.14;100142.13;5106400;28;20289;-61
2022/08/31 14:21:53;;;;;;;9.13;3.20;;;;;;;16.81;96.07;100138.53;5072552;28;20367;-62
2022/08/31 14:24:35;;;;;;;;;;;;;;;16.84;95.98;100139.34;5106692;28;20333;-62
2022/08/31 14:27:16;;;;;;;5.75;3.05;;;;;;;16.81;95.94;100143.81;5105042;28;20244;-62
2022/08/31 14:29:56;;;;;;;6.63;2.60;;;;;;;16.74;95.70;100141.50;5105866;28;20123;-62
2022/08/31 14:32:38;;;;;;;4.20;2.57;;;;;;;16.60;95.73;100139.47;5105718;28;20325;-64
2022/08/31 14:35:35;;;;;;;7.70;2.03;;;;;;;16.45;96.17;100150.66;5103232;28;20289;-62
2022/08/31 14:38:24;;;;;;;6.20;2.17;;;;;;;16.37;96.65;100136.03;5103433;28;20297;-63
2022/08/31 14:41:08;;;;;;;7.00;2.60;;;;;;;16.37;97.24;100133.41;5062103;28;20359;-62
2022/08/31 14:44:16;;;;;;;5.68;2.53;;;;;;;16.19;97.49;100105.16;5073694;28;20292;-63
2022/08/31 14:47:12;;;;;;;4.68;2.00;;;;;;;16.12;97.50;100103.69;5105348;28;20083;-63